Time,TemperatureF,DewpointF,PressureIn,WindDirection,WindDirectionDegrees,WindSpeedMPH,WindSpeedGustMPH,Humidity,HourlyPrecipIn,Conditions,Clouds,dailyrainin,SoftwareType,DateUTC
2013-03-15 00:00:00,54.1,48.9,30.21,North,-999,-999.0,-999.0,82,0.00,,,0.00,AD6XL-WX-0.1,2013-03-15 07:00:00,
2013-03-15 00:05:00,54.2,48.9,30.21,North,-999,-999.0,-999.0,82,0.00,,,0.00,AD6XL-WX-0.1,2013-03-15 07:05:00,
2013-03-15 00:10:00,54.1,48.9,30.22,North,-999,-999.0,-999.0,82,0.00,,,0.00,AD6XL-WX-0.1,2013-03-15 07:10:00,
2013-03-15 00:15:00,54.1,48.9,30.22,North,-999,-999.0,-999.0,82,0.00,,,0.00,AD6XL-WX-0.1,2013-03-15 07:15:00,
2013-03-15 00:21:00,54.1,49.0,30.22,North,-999,-999.0,-999.0,82,0.00,,,0.00,AD6XL-WX-0.1,2013-03-15 07:21:00,
2013-03-15 00:26:00,54.1,49.0,30.22,North,-999,-999.0,-999.0,82,0.00,,,0.00,AD6XL-WX-0.1,2013-03-15 07:26:00,
2013-03-15 00:31:00,54.1,49.0,30.21,North,-999,-999.0,-999.0,82,0.00,,,0.00,AD6XL-WX-0.1,2013-03-15 07:31:00,
2013-03-15 00:36:00,54.0,49.0,30.22,North,-999,-999.0,-999.0,83,0.00,,,0.00,AD6XL-WX-0.1,2013-03-15 07:36:00,
2013-03-15 00:41:00,54.0,49.0,30.22,North,-999,-999.0,-999.0,83,0.00,,,0.00,AD6XL-WX-0.1,2013-03-15 07:41:00,
2013-03-15 00:46:00,54.0,49.1,30.22,North,-999,-999.0,-999.0,83,0.00,,,0.00,AD6XL-WX-0.1,2013-03-15 07:46:00,
2013-03-15 00:51:00,54.0,49.2,30.22,North,-999,-999.0,-999.0,83,0.00,,,0.00,AD6XL-WX-0.1,2013-03-15 07:51:00,
2013-03-15 00:56:00,53.9,49.2,30.22,North,-999,-999.0,-999.0,83,0.00,,,0.00,AD6XL-WX-0.1,2013-03-15 07:56:00,
2013-03-15 01:01:00,53.9,49.2,30.22,North,-999,-999.0,-999.0,83,0.00,,,0.00,AD6XL-WX-0.1,2013-03-15 08:01:00,
2013-03-15 01:06:00,53.8,49.1,30.22,North,-999,-999.0,-999.0,83,0.00,,,0.00,AD6XL-WX-0.1,2013-03-15 08:06:00,
2013-03-15 01:12:00,53.8,49.1,30.22,North,-999,-999.0,-999.0,84,0.00,,,0.00,AD6XL-WX-0.1,2013-03-15 08:12:00,
2013-03-15 01:17:00,53.8,49.1,30.22,North,-999,-999.0,-999.0,84,0.00,,,0.00,AD6XL-WX-0.1,2013-03-15 08:17:00,
2013-03-15 01:22:00,53.8,49.0,30.22,North,-999,-999.0,-999.0,83,0.00,,,0.00,AD6XL-WX-0.1,2013-03-15 08:22:00,
2013-03-15 01:27:00,53.8,49.0,30.22,North,-999,-999.0,-999.0,83,0.00,,,0.00,AD6XL-WX-0.1,2013-03-15 08:27:00,
2013-03-15 01:32:00,53.7,49.0,30.22,North,-999,-999.0,-999.0,83,0.00,,,0.00,AD6XL-WX-0.1,2013-03-15 08:32:00,
2013-03-15 01:37:00,53.5,48.9,30.22,North,-999,-999.0,-999.0,84,0.00,,,0.00,AD6XL-WX-0.1,2013-03-15 08:37:00,
2013-03-15 01:42:00,53.4,48.8,30.22,North,-999,-999.0,-999.0,84,0.00,,,0.00,AD6XL-WX-0.1,2013-03-15 08:42:00,
2013-03-15 01:47:00,53.2,48.7,30.22,North,-999,-999.0,-999.0,84,0.00,,,0.00,AD6XL-WX-0.1,2013-03-15 08:47:00,
2013-03-15 01:52:00,52.9,48.5,30.22,North,-999,-999.0,-999.0,84,0.00,,,0.00,AD6XL-WX-0.1,2013-03-15 08:52:00,
2013-03-15 01:57:00,52.8,48.5,30.22,North,-999,-999.0,-999.0,85,0.00,,,0.00,AD6XL-WX-0.1,2013-03-15 08:57:00,
2013-03-15 02:03:00,52.6,48.4,30.22,North,-999,-999.0,-999.0,85,0.00,,,0.00,AD6XL-WX-0.1,2013-03-15 09:03:00,
2013-03-15 02:08:00,52.5,48.4,30.22,North,-999,-999.0,-999.0,85,0.00,,,0.00,AD6XL-WX-0.1,2013-03-15 09:08:00,
2013-03-15 02:13:00,52.5,48.4,30.22,North,-999,-999.0,-999.0,85,0.00,,,0.00,AD6XL-WX-0.1,2013-03-15 09:13:00,
2013-03-15 02:18:00,52.5,48.5,30.22,North,-999,-999.0,-999.0,86,0.00,,,0.00,AD6XL-WX-0.1,2013-03-15 09:18:00,
2013-03-15 02:23:00,52.4,48.5,30.23,North,-999,-999.0,-999.0,86,0.00,,,0.00,AD6XL-WX-0.1,2013-03-15 09:23:00,
2013-03-15 02:28:00,52.3,48.6,30.23,North,-999,-999.0,-999.0,86,0.00,,,0.00,AD6XL-WX-0.1,2013-03-15 09:28:00,
2013-03-15 02:33:00,52.3,48.8,30.22,North,-999,-999.0,-999.0,87,0.00,,,0.00,AD6XL-WX-0.1,2013-03-15 09:33:00,
2013-03-15 02:38:00,52.2,48.9,30.22,North,-999,-999.0,-999.0,88,0.00,,,0.00,AD6XL-WX-0.1,2013-03-15 09:38:00,
2013-03-15 02:43:00,52.1,48.8,30.22,North,-999,-999.0,-999.0,88,0.00,,,0.00,AD6XL-WX-0.1,2013-03-15 09:43:00,
2013-03-15 02:48:00,52.1,48.9,30.22,North,-999,-999.0,-999.0,88,0.00,,,0.00,AD6XL-WX-0.1,2013-03-15 09:48:00,
2013-03-15 02:53:00,52.2,48.9,30.22,North,-999,-999.0,-999.0,88,0.00,,,0.00,AD6XL-WX-0.1,2013-03-15 09:53:00,
2013-03-15 02:58:00,52.3,49.0,30.22,North,-999,-999.0,-999.0,88,0.00,,,0.00,AD6XL-WX-0.1,2013-03-15 09:58:00,
2013-03-15 03:04:00,52.3,49.2,30.22,North,-999,-999.0,-999.0,89,0.00,,,0.00,AD6XL-WX-0.1,2013-03-15 10:04:00,
2013-03-15 03:09:00,52.3,49.2,30.22,North,-999,-999.0,-999.0,88,0.00,,,0.00,AD6XL-WX-0.1,2013-03-15 10:09:00,
2013-03-15 03:14:00,52.4,49.2,30.22,North,-999,-999.0,-999.0,88,0.00,,,0.00,AD6XL-WX-0.1,2013-03-15 10:14:00,
2013-03-15 03:19:00,52.5,49.3,30.22,North,-999,-999.0,-999.0,88,0.00,,,0.00,AD6XL-WX-0.1,2013-03-15 10:19:00,
2013-03-15 03:24:00,52.6,49.5,30.22,North,-999,-999.0,-999.0,89,0.00,,,0.00,AD6XL-WX-0.1,2013-03-15 10:24:00,
2013-03-15 03:29:00,52.7,49.6,30.22,North,-999,-999.0,-999.0,89,0.00,,,0.00,AD6XL-WX-0.1,2013-03-15 10:29:00,
2013-03-15 03:34:00,52.8,49.6,30.22,North,-999,-999.0,-999.0,88,0.00,,,0.00,AD6XL-WX-0.1,2013-03-15 10:34:00,
2013-03-15 03:39:00,52.9,49.6,30.22,North,-999,-999.0,-999.0,88,0.00,,,0.00,AD6XL-WX-0.1,2013-03-15 10:39:00,
2013-03-15 03:44:00,52.9,49.6,30.22,North,-999,-999.0,-999.0,88,0.00,,,0.00,AD6XL-WX-0.1,2013-03-15 10:44:00,
2013-03-15 03:49:00,53.0,49.6,30.21,North,-999,-999.0,-999.0,88,0.00,,,0.00,AD6XL-WX-0.1,2013-03-15 10:49:00,
2013-03-15 03:54:00,53.0,49.6,30.21,North,-999,-999.0,-999.0,88,0.00,,,0.00,AD6XL-WX-0.1,2013-03-15 10:54:00,
2013-03-15 04:00:00,53.1,49.6,30.21,North,-999,-999.0,-999.0,87,0.00,,,0.00,AD6XL-WX-0.1,2013-03-15 11:00:00,
2013-03-15 04:05:00,53.0,49.5,30.21,North,-999,-999.0,-999.0,87,0.00,,,0.00,AD6XL-WX-0.1,2013-03-15 11:05:00,
2013-03-15 04:10:00,52.9,49.5,30.21,North,-999,-999.0,-999.0,88,0.00,,,0.00,AD6XL-WX-0.1,2013-03-15 11:10:00,
2013-03-15 04:15:00,52.9,49.5,30.21,North,-999,-999.0,-999.0,88,0.00,,,0.00,AD6XL-WX-0.1,2013-03-15 11:15:00,
2013-03-15 04:20:00,52.7,49.4,30.21,North,-999,-999.0,-999.0,88,0.00,,,0.00,AD6XL-WX-0.1,2013-03-15 11:20:00,
2013-03-15 04:25:00,52.5,49.2,30.21,North,-999,-999.0,-999.0,88,0.00,,,0.00,AD6XL-WX-0.1,2013-03-15 11:25:00,
2013-03-15 04:30:00,52.4,49.1,30.21,North,-999,-999.0,-999.0,88,0.00,,,0.00,AD6XL-WX-0.1,2013-03-15 11:30:00,
2013-03-15 04:35:00,52.3,49.1,30.21,North,-999,-999.0,-999.0,88,0.00,,,0.00,AD6XL-WX-0.1,2013-03-15 11:35:00,
2013-03-15 04:40:00,52.1,48.9,30.21,North,-999,-999.0,-999.0,89,0.00,,,0.00,AD6XL-WX-0.1,2013-03-15 11:40:00,
2013-03-15 04:45:00,51.9,48.9,30.21,North,-999,-999.0,-999.0,89,0.00,,,0.00,AD6XL-WX-0.1,2013-03-15 11:45:00,
2013-03-15 04:51:00,51.7,48.7,30.21,North,-999,-999.0,-999.0,89,0.00,,,0.00,AD6XL-WX-0.1,2013-03-15 11:51:00,
2013-03-15 04:56:00,51.6,48.5,30.21,North,-999,-999.0,-999.0,89,0.00,,,0.00,AD6XL-WX-0.1,2013-03-15 11:56:00,
2013-03-15 05:01:00,51.4,48.4,30.21,North,-999,-999.0,-999.0,89,0.00,,,0.00,AD6XL-WX-0.1,2013-03-15 12:01:00,
2013-03-15 05:06:00,51.4,48.5,30.21,North,-999,-999.0,-999.0,89,0.00,,,0.00,AD6XL-WX-0.1,2013-03-15 12:06:00,
2013-03-15 05:11:00,51.3,48.5,30.21,North,-999,-999.0,-999.0,89,0.00,,,0.00,AD6XL-WX-0.1,2013-03-15 12:11:00,
2013-03-15 05:17:00,51.2,48.4,30.21,North,-999,-999.0,-999.0,89,0.00,,,0.00,AD6XL-WX-0.1,2013-03-15 12:17:00,
2013-03-15 05:22:00,51.2,48.4,30.22,North,-999,-999.0,-999.0,90,0.00,,,0.00,AD6XL-WX-0.1,2013-03-15 12:22:00,
2013-03-15 05:27:00,51.1,48.4,30.22,North,-999,-999.0,-999.0,90,0.00,,,0.00,AD6XL-WX-0.1,2013-03-15 12:27:00,
2013-03-15 05:32:00,51.1,48.4,30.22,North,-999,-999.0,-999.0,90,0.00,,,0.00,AD6XL-WX-0.1,2013-03-15 12:32:00,
2013-03-15 05:37:00,51.1,48.4,30.22,North,-999,-999.0,-999.0,90,0.00,,,0.00,AD6XL-WX-0.1,2013-03-15 12:37:00,
2013-03-15 05:42:00,51.1,48.4,30.22,North,-999,-999.0,-999.0,90,0.00,,,0.00,AD6XL-WX-0.1,2013-03-15 12:42:00,
2013-03-15 05:47:00,51.1,48.4,30.22,North,-999,-999.0,-999.0,90,0.00,,,0.00,AD6XL-WX-0.1,2013-03-15 12:47:00,
2013-03-15 05:53:00,51.1,48.4,30.22,North,-999,-999.0,-999.0,90,0.00,,,0.00,AD6XL-WX-0.1,2013-03-15 12:53:00,
2013-03-15 05:58:00,51.1,48.4,30.22,North,-999,-999.0,-999.0,90,0.00,,,0.00,AD6XL-WX-0.1,2013-03-15 12:58:00,
2013-03-15 06:03:00,51.0,48.4,30.22,North,-999,-999.0,-999.0,90,0.00,,,0.00,AD6XL-WX-0.1,2013-03-15 13:03:00,
2013-03-15 06:08:00,51.1,48.4,30.22,North,-999,-999.0,-999.0,90,0.00,,,0.00,AD6XL-WX-0.1,2013-03-15 13:08:00,
2013-03-15 06:13:00,51.1,48.4,30.22,North,-999,-999.0,-999.0,90,0.00,,,0.00,AD6XL-WX-0.1,2013-03-15 13:13:00,
2013-03-15 06:18:00,51.1,48.4,30.22,North,-999,-999.0,-999.0,90,0.00,,,0.00,AD6XL-WX-0.1,2013-03-15 13:18:00,
2013-03-15 06:23:00,51.1,48.5,30.22,North,-999,-999.0,-999.0,90,0.00,,,0.00,AD6XL-WX-0.1,2013-03-15 13:23:00,
2013-03-15 06:28:00,51.2,48.6,30.22,North,-999,-999.0,-999.0,90,0.00,,,0.00,AD6XL-WX-0.1,2013-03-15 13:28:00,
2013-03-15 06:33:00,51.3,48.7,30.22,North,-999,-999.0,-999.0,90,0.00,,,0.00,AD6XL-WX-0.1,2013-03-15 13:33:00,
2013-03-15 06:38:00,51.4,48.8,30.22,North,-999,-999.0,-999.0,90,0.00,,,0.00,AD6XL-WX-0.1,2013-03-15 13:38:00,
2013-03-15 06:43:00,51.4,48.8,30.22,North,-999,-999.0,-999.0,90,0.00,,,0.00,AD6XL-WX-0.1,2013-03-15 13:43:00,
2013-03-15 06:48:00,51.4,48.9,30.22,North,-999,-999.0,-999.0,90,0.00,,,0.00,AD6XL-WX-0.1,2013-03-15 13:48:00,
2013-03-15 06:54:00,51.4,48.9,30.22,North,-999,-999.0,-999.0,90,0.00,,,0.00,AD6XL-WX-0.1,2013-03-15 13:54:00,
2013-03-15 06:59:00,51.4,49.0,30.22,North,-999,-999.0,-999.0,91,0.00,,,0.00,AD6XL-WX-0.1,2013-03-15 13:59:00,
2013-03-15 07:04:00,51.5,49.1,30.22,North,-999,-999.0,-999.0,91,0.00,,,0.00,AD6XL-WX-0.1,2013-03-15 14:04:00,
2013-03-15 07:09:00,51.6,49.2,30.22,North,-999,-999.0,-999.0,91,0.00,,,0.00,AD6XL-WX-0.1,2013-03-15 14:09:00,
2013-03-15 07:14:00,51.7,49.3,30.22,North,-999,-999.0,-999.0,91,0.00,,,0.00,AD6XL-WX-0.1,2013-03-15 14:14:00,
2013-03-15 07:19:00,51.8,49.3,30.22,North,-999,-999.0,-999.0,91,0.00,,,0.00,AD6XL-WX-0.1,2013-03-15 14:19:00,
2013-03-15 07:24:00,51.8,49.3,30.22,North,-999,-999.0,-999.0,91,0.00,,,0.00,AD6XL-WX-0.1,2013-03-15 14:24:00,
2013-03-15 07:29:00,51.8,49.2,30.22,North,-999,-999.0,-999.0,90,0.00,,,0.00,AD6XL-WX-0.1,2013-03-15 14:29:00,
2013-03-15 07:34:00,51.7,49.2,30.22,North,-999,-999.0,-999.0,91,0.00,,,0.00,AD6XL-WX-0.1,2013-03-15 14:34:00,
2013-03-15 07:39:00,51.6,49.1,30.22,North,-999,-999.0,-999.0,91,0.00,,,0.00,AD6XL-WX-0.1,2013-03-15 14:39:00,
2013-03-15 07:45:00,51.6,49.1,30.22,North,-999,-999.0,-999.0,91,0.00,,,0.00,AD6XL-WX-0.1,2013-03-15 14:45:00,
2013-03-15 07:50:00,51.6,49.1,30.22,North,-999,-999.0,-999.0,91,0.00,,,0.00,AD6XL-WX-0.1,2013-03-15 14:50:00,
2013-03-15 07:55:00,51.6,49.1,30.22,North,-999,-999.0,-999.0,91,0.00,,,0.00,AD6XL-WX-0.1,2013-03-15 14:55:00,
2013-03-15 08:00:00,51.5,49.2,30.22,North,-999,-999.0,-999.0,91,0.00,,,0.00,AD6XL-WX-0.1,2013-03-15 15:00:00,
2013-03-15 08:05:00,51.6,49.4,30.22,North,-999,-999.0,-999.0,92,0.00,,,0.00,AD6XL-WX-0.1,2013-03-15 15:05:00,
2013-03-15 08:10:00,51.5,49.5,30.22,North,-999,-999.0,-999.0,92,0.00,,,0.00,AD6XL-WX-0.1,2013-03-15 15:10:00,
2013-03-15 08:15:00,51.5,49.5,30.22,North,-999,-999.0,-999.0,92,0.00,,,0.00,AD6XL-WX-0.1,2013-03-15 15:15:00,
2013-03-15 08:20:00,51.4,49.5,30.22,North,-999,-999.0,-999.0,92,0.00,,,0.00,AD6XL-WX-0.1,2013-03-15 15:20:00,
2013-03-15 08:25:00,51.4,49.5,30.22,North,-999,-999.0,-999.0,92,0.00,,,0.00,AD6XL-WX-0.1,2013-03-15 15:25:00,
2013-03-15 08:30:00,51.3,49.3,30.22,North,-999,-999.0,-999.0,93,0.00,,,0.00,AD6XL-WX-0.1,2013-03-15 15:30:00,
2013-03-15 08:35:00,51.1,49.2,30.22,North,-999,-999.0,-999.0,93,0.00,,,0.00,AD6XL-WX-0.1,2013-03-15 15:35:00,
2013-03-15 08:41:00,51.1,49.2,30.22,North,-999,-999.0,-999.0,93,0.00,,,0.00,AD6XL-WX-0.1,2013-03-15 15:41:00,
2013-03-15 08:46:00,51.1,49.2,30.22,North,-999,-999.0,-999.0,93,0.00,,,0.00,AD6XL-WX-0.1,2013-03-15 15:46:00,
2013-03-15 08:51:00,51.1,49.2,30.22,North,-999,-999.0,-999.0,93,0.00,,,0.00,AD6XL-WX-0.1,2013-03-15 15:51:00,
2013-03-15 08:56:00,51.1,49.2,30.22,North,-999,-999.0,-999.0,93,0.00,,,0.00,AD6XL-WX-0.1,2013-03-15 15:56:00,
2013-03-15 09:01:00,51.2,49.3,30.22,North,-999,-999.0,-999.0,92,0.00,,,0.00,AD6XL-WX-0.1,2013-03-15 16:01:00,
2013-03-15 09:06:00,51.5,49.4,30.22,North,-999,-999.0,-999.0,92,0.00,,,0.00,AD6XL-WX-0.1,2013-03-15 16:06:00,
2013-03-15 09:11:00,51.7,49.5,30.23,North,-999,-999.0,-999.0,92,0.00,,,0.00,AD6XL-WX-0.1,2013-03-15 16:11:00,
2013-03-15 09:16:00,52.1,49.8,30.23,North,-999,-999.0,-999.0,91,0.00,,,0.00,AD6XL-WX-0.1,2013-03-15 16:16:00,
2013-03-15 09:21:00,52.4,50.0,30.23,North,-999,-999.0,-999.0,91,0.00,,,0.00,AD6XL-WX-0.1,2013-03-15 16:21:00,
2013-03-15 09:26:00,52.7,50.2,30.23,North,-999,-999.0,-999.0,90,0.00,,,0.00,AD6XL-WX-0.1,2013-03-15 16:26:00,
2013-03-15 09:32:00,53.1,50.3,30.23,North,-999,-999.0,-999.0,90,0.00,,,0.00,AD6XL-WX-0.1,2013-03-15 16:32:00,
2013-03-15 09:37:00,53.4,50.5,30.23,North,-999,-999.0,-999.0,89,0.00,,,0.00,AD6XL-WX-0.1,2013-03-15 16:37:00,
2013-03-15 09:42:00,53.6,50.6,30.23,North,-999,-999.0,-999.0,89,0.00,,,0.00,AD6XL-WX-0.1,2013-03-15 16:42:00,
2013-03-15 09:47:00,53.8,50.7,30.23,North,-999,-999.0,-999.0,89,0.00,,,0.00,AD6XL-WX-0.1,2013-03-15 16:47:00,
2013-03-15 09:52:00,54.1,50.8,30.23,North,-999,-999.0,-999.0,88,0.00,,,0.00,AD6XL-WX-0.1,2013-03-15 16:52:00,
2013-03-15 09:57:00,54.2,50.8,30.23,North,-999,-999.0,-999.0,88,0.00,,,0.00,AD6XL-WX-0.1,2013-03-15 16:57:00,
2013-03-15 10:02:00,54.5,50.8,30.23,North,-999,-999.0,-999.0,87,0.00,,,0.00,AD6XL-WX-0.1,2013-03-15 17:02:00,
2013-03-15 10:07:00,54.7,50.8,30.23,North,-999,-999.0,-999.0,86,0.00,,,0.00,AD6XL-WX-0.1,2013-03-15 17:07:00,
2013-03-15 10:12:00,55.0,50.8,30.23,North,-999,-999.0,-999.0,85,0.00,,,0.00,AD6XL-WX-0.1,2013-03-15 17:12:00,
2013-03-15 10:17:00,55.3,50.5,30.23,North,-999,-999.0,-999.0,83,0.00,,,0.00,AD6XL-WX-0.1,2013-03-15 17:17:00,
2013-03-15 10:23:00,55.6,50.3,30.23,North,-999,-999.0,-999.0,82,0.00,,,0.00,AD6XL-WX-0.1,2013-03-15 17:23:00,
2013-03-15 10:28:00,55.9,50.4,30.23,North,-999,-999.0,-999.0,81,0.00,,,0.00,AD6XL-WX-0.1,2013-03-15 17:28:00,
2013-03-15 10:33:00,56.2,50.5,30.23,North,-999,-999.0,-999.0,81,0.00,,,0.00,AD6XL-WX-0.1,2013-03-15 17:33:00,
2013-03-15 10:38:00,56.6,50.6,30.23,North,-999,-999.0,-999.0,80,0.00,,,0.00,AD6XL-WX-0.1,2013-03-15 17:38:00,
2013-03-15 10:43:00,57.1,50.8,30.23,North,-999,-999.0,-999.0,79,0.00,,,0.00,AD6XL-WX-0.1,2013-03-15 17:43:00,
2013-03-15 10:48:00,57.7,50.6,30.23,North,-999,-999.0,-999.0,77,0.00,,,0.00,AD6XL-WX-0.1,2013-03-15 17:48:00,
2013-03-15 10:53:00,58.1,50.5,30.23,North,-999,-999.0,-999.0,75,0.00,,,0.00,AD6XL-WX-0.1,2013-03-15 17:53:00,
2013-03-15 10:58:00,58.6,50.8,30.23,North,-999,-999.0,-999.0,75,0.00,,,0.00,AD6XL-WX-0.1,2013-03-15 17:58:00,
2013-03-15 11:03:00,58.9,50.6,30.23,North,-999,-999.0,-999.0,73,0.00,,,0.00,AD6XL-WX-0.1,2013-03-15 18:03:00,
2013-03-15 11:09:00,59.1,50.8,30.23,North,-999,-999.0,-999.0,73,0.00,,,0.00,AD6XL-WX-0.1,2013-03-15 18:09:00,
2013-03-15 11:14:00,59.4,51.2,30.23,North,-999,-999.0,-999.0,74,0.00,,,0.00,AD6XL-WX-0.1,2013-03-15 18:14:00,
2013-03-15 11:19:00,59.7,51.1,30.23,North,-999,-999.0,-999.0,73,0.00,,,0.00,AD6XL-WX-0.1,2013-03-15 18:19:00,
2013-03-15 11:24:00,60.0,50.8,30.23,North,-999,-999.0,-999.0,71,0.00,,,0.00,AD6XL-WX-0.1,2013-03-15 18:24:00,
2013-03-15 11:29:00,60.1,50.9,30.23,North,-999,-999.0,-999.0,71,0.00,,,0.00,AD6XL-WX-0.1,2013-03-15 18:29:00,
2013-03-15 11:34:00,60.3,50.9,30.23,North,-999,-999.0,-999.0,70,0.00,,,0.00,AD6XL-WX-0.1,2013-03-15 18:34:00,
2013-03-15 11:39:00,60.4,50.8,30.23,North,-999,-999.0,-999.0,70,0.00,,,0.00,AD6XL-WX-0.1,2013-03-15 18:39:00,
2013-03-15 11:44:00,60.5,50.8,30.23,North,-999,-999.0,-999.0,70,0.00,,,0.00,AD6XL-WX-0.1,2013-03-15 18:44:00,
2013-03-15 11:49:00,60.7,51.0,30.23,North,-999,-999.0,-999.0,70,0.00,,,0.00,AD6XL-WX-0.1,2013-03-15 18:49:00,
2013-03-15 11:54:00,60.9,50.6,30.23,North,-999,-999.0,-999.0,68,0.00,,,0.00,AD6XL-WX-0.1,2013-03-15 18:54:00,
2013-03-15 12:00:00,61.2,50.5,30.23,North,-999,-999.0,-999.0,67,0.00,,,0.00,AD6XL-WX-0.1,2013-03-15 19:00:00,
2013-03-15 12:05:00,61.5,50.6,30.23,North,-999,-999.0,-999.0,67,0.00,,,0.00,AD6XL-WX-0.1,2013-03-15 19:05:00,
2013-03-15 12:10:00,61.9,50.7,30.23,North,-999,-999.0,-999.0,66,0.00,,,0.00,AD6XL-WX-0.1,2013-03-15 19:10:00,
2013-03-15 12:15:00,62.1,50.3,30.23,North,-999,-999.0,-999.0,65,0.00,,,0.00,AD6XL-WX-0.1,2013-03-15 19:15:00,
2013-03-15 12:20:00,62.4,50.6,30.23,North,-999,-999.0,-999.0,65,0.00,,,0.00,AD6XL-WX-0.1,2013-03-15 19:20:00,
2013-03-15 12:25:00,62.7,50.8,30.23,North,-999,-999.0,-999.0,65,0.00,,,0.00,AD6XL-WX-0.1,2013-03-15 19:25:00,
2013-03-15 12:30:00,62.9,50.7,30.23,North,-999,-999.0,-999.0,64,0.00,,,0.00,AD6XL-WX-0.1,2013-03-15 19:30:00,
2013-03-15 12:35:00,63.2,51.0,30.23,North,-999,-999.0,-999.0,64,0.00,,,0.00,AD6XL-WX-0.1,2013-03-15 19:35:00,
2013-03-15 12:40:00,63.4,51.0,30.22,North,-999,-999.0,-999.0,63,0.00,,,0.00,AD6XL-WX-0.1,2013-03-15 19:40:00,
2013-03-15 12:45:00,63.7,51.2,30.22,North,-999,-999.0,-999.0,63,0.00,,,0.00,AD6XL-WX-0.1,2013-03-15 19:45:00,
2013-03-15 12:50:00,63.9,50.8,30.22,North,-999,-999.0,-999.0,62,0.00,,,0.00,AD6XL-WX-0.1,2013-03-15 19:50:00,
2013-03-15 12:56:00,64.0,50.5,30.22,North,-999,-999.0,-999.0,61,0.02,,,0.02,AD6XL-WX-0.1,2013-03-15 19:56:00,
2013-03-15 13:01:00,64.1,50.9,30.22,North,-999,-999.0,-999.0,62,0.02,,,0.02,AD6XL-WX-0.1,2013-03-15 20:01:00,
2013-03-15 13:06:00,64.2,50.9,30.22,North,-999,-999.0,-999.0,62,0.02,,,0.02,AD6XL-WX-0.1,2013-03-15 20:06:00,
2013-03-15 13:11:00,64.5,51.0,30.22,North,-999,-999.0,-999.0,61,0.02,,,0.02,AD6XL-WX-0.1,2013-03-15 20:11:00,
2013-03-15 13:16:00,65.0,51.3,30.22,North,-999,-999.0,-999.0,61,0.02,,,0.02,AD6XL-WX-0.1,2013-03-15 20:16:00,
2013-03-15 13:22:00,65.5,51.1,30.21,North,-999,-999.0,-999.0,59,0.02,,,0.02,AD6XL-WX-0.1,2013-03-15 20:22:00,
2013-03-15 13:27:00,65.8,51.1,30.21,North,-999,-999.0,-999.0,59,0.02,,,0.02,AD6XL-WX-0.1,2013-03-15 20:27:00,
2013-03-15 13:32:00,66.2,51.4,30.21,North,-999,-999.0,-999.0,58,0.02,,,0.02,AD6XL-WX-0.1,2013-03-15 20:32:00,
2013-03-15 13:37:00,66.5,51.4,30.21,North,-999,-999.0,-999.0,58,0.02,,,0.02,AD6XL-WX-0.1,2013-03-15 20:37:00,
2013-03-15 13:42:00,66.8,51.5,30.21,North,-999,-999.0,-999.0,57,0.02,,,0.02,AD6XL-WX-0.1,2013-03-15 20:42:00,
2013-03-15 13:47:00,67.2,51.6,30.21,North,-999,-999.0,-999.0,57,0.02,,,0.02,AD6XL-WX-0.1,2013-03-15 20:47:00,
2013-03-15 13:52:00,67.4,51.3,30.21,North,-999,-999.0,-999.0,56,0.02,,,0.02,AD6XL-WX-0.1,2013-03-15 20:52:00,
2013-03-15 13:57:00,67.5,51.5,30.21,North,-999,-999.0,-999.0,56,0.00,,,0.02,AD6XL-WX-0.1,2013-03-15 20:57:00,
2013-03-15 14:02:00,67.7,51.8,30.20,North,-999,-999.0,-999.0,56,0.00,,,0.02,AD6XL-WX-0.1,2013-03-15 21:02:00,
2013-03-15 14:07:00,67.8,51.8,30.20,North,-999,-999.0,-999.0,56,0.00,,,0.02,AD6XL-WX-0.1,2013-03-15 21:07:00,
2013-03-15 14:13:00,68.0,51.0,30.20,North,-999,-999.0,-999.0,54,0.00,,,0.02,AD6XL-WX-0.1,2013-03-15 21:13:00,
2013-03-15 14:18:00,68.1,50.9,30.20,North,-999,-999.0,-999.0,54,0.00,,,0.02,AD6XL-WX-0.1,2013-03-15 21:18:00,
2013-03-15 14:23:00,68.7,51.0,30.20,North,-999,-999.0,-999.0,53,0.00,,,0.02,AD6XL-WX-0.1,2013-03-15 21:23:00,
2013-03-15 14:28:00,69.4,50.8,30.20,North,-999,-999.0,-999.0,51,0.00,,,0.02,AD6XL-WX-0.1,2013-03-15 21:28:00,
2013-03-15 14:33:00,69.7,50.0,30.20,North,-999,-999.0,-999.0,49,0.00,,,0.02,AD6XL-WX-0.1,2013-03-15 21:33:00,
2013-03-15 14:38:00,69.3,49.7,30.20,North,-999,-999.0,-999.0,49,0.00,,,0.02,AD6XL-WX-0.1,2013-03-15 21:38:00,
2013-03-15 14:43:00,69.0,50.2,30.19,North,-999,-999.0,-999.0,51,0.00,,,0.02,AD6XL-WX-0.1,2013-03-15 21:43:00,
2013-03-15 14:48:00,68.8,50.1,30.19,North,-999,-999.0,-999.0,51,0.00,,,0.02,AD6XL-WX-0.1,2013-03-15 21:48:00,
2013-03-15 14:53:00,68.2,49.6,30.19,North,-999,-999.0,-999.0,51,0.00,,,0.02,AD6XL-WX-0.1,2013-03-15 21:53:00,
2013-03-15 14:58:00,67.4,49.6,30.19,North,-999,-999.0,-999.0,52,0.00,,,0.02,AD6XL-WX-0.1,2013-03-15 21:58:00,
2013-03-15 15:04:00,67.0,49.7,30.19,North,-999,-999.0,-999.0,53,0.00,,,0.02,AD6XL-WX-0.1,2013-03-15 22:04:00,
2013-03-15 15:09:00,66.8,49.8,30.19,North,-999,-999.0,-999.0,54,0.00,,,0.02,AD6XL-WX-0.1,2013-03-15 22:09:00,
2013-03-15 15:14:00,66.6,49.9,30.19,North,-999,-999.0,-999.0,54,0.00,,,0.02,AD6XL-WX-0.1,2013-03-15 22:14:00,
2013-03-15 15:19:00,66.6,50.0,30.19,North,-999,-999.0,-999.0,55,0.00,,,0.02,AD6XL-WX-0.1,2013-03-15 22:19:00,
2013-03-15 15:24:00,66.6,49.8,30.19,North,-999,-999.0,-999.0,54,0.00,,,0.02,AD6XL-WX-0.1,2013-03-15 22:24:00,
2013-03-15 15:29:00,66.5,49.6,30.18,North,-999,-999.0,-999.0,54,0.00,,,0.02,AD6XL-WX-0.1,2013-03-15 22:29:00,
2013-03-15 15:34:00,66.6,49.8,30.18,North,-999,-999.0,-999.0,54,0.00,,,0.02,AD6XL-WX-0.1,2013-03-15 22:34:00,
2013-03-15 15:39:00,66.8,49.4,30.18,North,-999,-999.0,-999.0,53,0.00,,,0.02,AD6XL-WX-0.1,2013-03-15 22:39:00,
2013-03-15 15:44:00,67.1,49.7,30.18,North,-999,-999.0,-999.0,53,0.00,,,0.02,AD6XL-WX-0.1,2013-03-15 22:44:00,
2013-03-15 15:50:00,67.8,49.6,30.18,North,-999,-999.0,-999.0,52,0.00,,,0.02,AD6XL-WX-0.1,2013-03-15 22:50:00,
2013-03-15 15:55:00,68.2,49.5,30.18,North,-999,-999.0,-999.0,51,0.00,,,0.02,AD6XL-WX-0.1,2013-03-15 22:55:00,
2013-03-15 16:00:00,68.4,49.2,30.18,North,-999,-999.0,-999.0,50,0.00,,,0.02,AD6XL-WX-0.1,2013-03-15 23:00:00,
2013-03-15 16:05:00,68.7,49.1,30.18,North,-999,-999.0,-999.0,49,0.00,,,0.02,AD6XL-WX-0.1,2013-03-15 23:05:00,
2013-03-15 16:10:00,68.8,49.1,30.18,North,-999,-999.0,-999.0,49,0.00,,,0.02,AD6XL-WX-0.1,2013-03-15 23:10:00,
2013-03-15 16:15:00,68.5,48.5,30.18,North,-999,-999.0,-999.0,48,0.00,,,0.02,AD6XL-WX-0.1,2013-03-15 23:15:00,
2013-03-15 16:20:00,68.0,48.6,30.18,North,-999,-999.0,-999.0,49,0.00,,,0.02,AD6XL-WX-0.1,2013-03-15 23:20:00,
2013-03-15 16:25:00,67.8,49.2,30.18,North,-999,-999.0,-999.0,51,0.00,,,0.02,AD6XL-WX-0.1,2013-03-15 23:25:00,
2013-03-15 16:30:00,67.9,49.5,30.18,North,-999,-999.0,-999.0,51,0.00,,,0.02,AD6XL-WX-0.1,2013-03-15 23:30:00,
2013-03-15 16:35:00,68.1,49.6,30.17,North,-999,-999.0,-999.0,51,0.00,,,0.02,AD6XL-WX-0.1,2013-03-15 23:35:00,
2013-03-15 16:41:00,67.8,48.6,30.17,North,-999,-999.0,-999.0,50,0.00,,,0.02,AD6XL-WX-0.1,2013-03-15 23:41:00,
2013-03-15 16:46:00,67.4,48.2,30.17,North,-999,-999.0,-999.0,50,0.00,,,0.02,AD6XL-WX-0.1,2013-03-15 23:46:00,
2013-03-15 16:51:00,66.8,47.2,30.17,North,-999,-999.0,-999.0,49,0.00,,,0.02,AD6XL-WX-0.1,2013-03-15 23:51:00,
2013-03-15 16:56:00,66.4,47.2,30.17,North,-999,-999.0,-999.0,50,0.00,,,0.02,AD6XL-WX-0.1,2013-03-15 23:56:00,
2013-03-15 17:01:00,66.1,47.3,30.17,North,-999,-999.0,-999.0,50,0.00,,,0.02,AD6XL-WX-0.1,2013-03-16 00:01:00,
2013-03-15 17:06:00,66.0,47.4,30.17,North,-999,-999.0,-999.0,51,0.00,,,0.02,AD6XL-WX-0.1,2013-03-16 00:06:00,
2013-03-15 17:11:00,66.0,47.5,30.17,North,-999,-999.0,-999.0,51,0.00,,,0.02,AD6XL-WX-0.1,2013-03-16 00:11:00,
2013-03-15 17:16:00,65.9,47.3,30.17,North,-999,-999.0,-999.0,51,0.00,,,0.02,AD6XL-WX-0.1,2013-03-16 00:16:00,
2013-03-15 17:21:00,65.6,47.2,30.17,North,-999,-999.0,-999.0,51,0.00,,,0.02,AD6XL-WX-0.1,2013-03-16 00:21:00,
2013-03-15 17:27:00,65.2,47.3,30.17,North,-999,-999.0,-999.0,52,0.00,,,0.02,AD6XL-WX-0.1,2013-03-16 00:27:00,
2013-03-15 17:32:00,64.9,47.3,30.17,North,-999,-999.0,-999.0,53,0.00,,,0.02,AD6XL-WX-0.1,2013-03-16 00:32:00,
2013-03-15 17:37:00,64.6,47.2,30.17,North,-999,-999.0,-999.0,53,0.00,,,0.02,AD6XL-WX-0.1,2013-03-16 00:37:00,
2013-03-15 17:42:00,64.5,47.2,30.17,North,-999,-999.0,-999.0,53,0.00,,,0.02,AD6XL-WX-0.1,2013-03-16 00:42:00,
2013-03-15 17:47:00,64.3,47.4,30.17,North,-999,-999.0,-999.0,54,0.00,,,0.02,AD6XL-WX-0.1,2013-03-16 00:47:00,
2013-03-15 17:52:00,64.2,47.7,30.17,North,-999,-999.0,-999.0,54,0.00,,,0.02,AD6XL-WX-0.1,2013-03-16 00:52:00,
2013-03-15 17:57:00,64.2,47.6,30.17,North,-999,-999.0,-999.0,54,0.00,,,0.02,AD6XL-WX-0.1,2013-03-16 00:57:00,
2013-03-15 18:02:00,64.2,47.5,30.17,North,-999,-999.0,-999.0,54,0.00,,,0.02,AD6XL-WX-0.1,2013-03-16 01:02:00,
2013-03-15 18:07:00,64.3,47.3,30.17,North,-999,-999.0,-999.0,54,0.00,,,0.02,AD6XL-WX-0.1,2013-03-16 01:07:00,
2013-03-15 18:12:00,64.2,47.2,30.17,North,-999,-999.0,-999.0,53,0.00,,,0.02,AD6XL-WX-0.1,2013-03-16 01:12:00,
2013-03-15 18:18:00,64.2,47.4,30.17,North,-999,-999.0,-999.0,54,0.00,,,0.02,AD6XL-WX-0.1,2013-03-16 01:18:00,
2013-03-15 18:23:00,63.9,47.9,30.16,North,-999,-999.0,-999.0,55,0.00,,,0.02,AD6XL-WX-0.1,2013-03-16 01:23:00,
2013-03-15 18:28:00,63.6,48.1,30.17,North,-999,-999.0,-999.0,57,0.00,,,0.02,AD6XL-WX-0.1,2013-03-16 01:28:00,
2013-03-15 18:33:00,63.3,48.2,30.16,North,-999,-999.0,-999.0,57,0.00,,,0.02,AD6XL-WX-0.1,2013-03-16 01:33:00,
2013-03-15 18:38:00,62.9,47.9,30.16,North,-999,-999.0,-999.0,58,0.00,,,0.02,AD6XL-WX-0.1,2013-03-16 01:38:00,
2013-03-15 18:43:00,62.5,47.8,30.16,North,-999,-999.0,-999.0,58,0.00,,,0.02,AD6XL-WX-0.1,2013-03-16 01:43:00,
2013-03-15 18:48:00,62.1,47.8,30.16,North,-999,-999.0,-999.0,59,0.00,,,0.02,AD6XL-WX-0.1,2013-03-16 01:48:00,
2013-03-15 18:53:00,61.8,47.8,30.16,North,-999,-999.0,-999.0,60,0.00,,,0.02,AD6XL-WX-0.1,2013-03-16 01:53:00,
2013-03-15 18:58:00,61.4,47.8,30.16,North,-999,-999.0,-999.0,60,0.00,,,0.02,AD6XL-WX-0.1,2013-03-16 01:58:00,
2013-03-15 19:03:00,61.1,47.8,30.17,North,-999,-999.0,-999.0,61,0.00,,,0.02,AD6XL-WX-0.1,2013-03-16 02:03:00,
2013-03-15 19:08:00,60.8,47.9,30.16,North,-999,-999.0,-999.0,62,0.00,,,0.02,AD6XL-WX-0.1,2013-03-16 02:08:00,
2013-03-15 19:14:00,60.4,48.0,30.17,North,-999,-999.0,-999.0,63,0.00,,,0.02,AD6XL-WX-0.1,2013-03-16 02:14:00,
2013-03-15 19:19:00,60.0,48.2,30.17,North,-999,-999.0,-999.0,65,0.00,,,0.02,AD6XL-WX-0.1,2013-03-16 02:19:00,
2013-03-15 19:24:00,59.6,48.5,30.17,North,-999,-999.0,-999.0,66,0.00,,,0.02,AD6XL-WX-0.1,2013-03-16 02:24:00,
2013-03-15 19:29:00,59.3,48.6,30.17,North,-999,-999.0,-999.0,67,0.00,,,0.02,AD6XL-WX-0.1,2013-03-16 02:29:00,
2013-03-15 19:34:00,59.0,48.6,30.17,North,-999,-999.0,-999.0,68,0.00,,,0.02,AD6XL-WX-0.1,2013-03-16 02:34:00,
2013-03-15 19:39:00,58.7,48.7,30.17,North,-999,-999.0,-999.0,69,0.00,,,0.02,AD6XL-WX-0.1,2013-03-16 02:39:00,
2013-03-15 19:44:00,58.4,48.7,30.17,North,-999,-999.0,-999.0,70,0.00,,,0.02,AD6XL-WX-0.1,2013-03-16 02:44:00,
2013-03-15 19:49:00,58.1,48.7,30.17,North,-999,-999.0,-999.0,70,0.00,,,0.02,AD6XL-WX-0.1,2013-03-16 02:49:00,
2013-03-15 19:54:00,57.9,48.7,30.17,North,-999,-999.0,-999.0,71,0.00,,,0.02,AD6XL-WX-0.1,2013-03-16 02:54:00,
2013-03-15 19:59:00,57.8,48.8,30.17,North,-999,-999.0,-999.0,72,0.00,,,0.02,AD6XL-WX-0.1,2013-03-16 02:59:00,
2013-03-15 20:05:00,57.5,48.7,30.17,North,-999,-999.0,-999.0,72,0.00,,,0.02,AD6XL-WX-0.1,2013-03-16 03:05:00,
2013-03-15 20:10:00,57.3,48.5,30.17,North,-999,-999.0,-999.0,72,0.00,,,0.02,AD6XL-WX-0.1,2013-03-16 03:10:00,
2013-03-15 20:15:00,57.0,48.4,30.17,North,-999,-999.0,-999.0,73,0.00,,,0.02,AD6XL-WX-0.1,2013-03-16 03:15:00,
2013-03-15 20:20:00,56.6,48.5,30.17,North,-999,-999.0,-999.0,74,0.00,,,0.02,AD6XL-WX-0.1,2013-03-16 03:20:00,
2013-03-15 20:25:00,56.1,48.7,30.17,North,-999,-999.0,-999.0,76,0.00,,,0.02,AD6XL-WX-0.1,2013-03-16 03:25:00,
2013-03-15 20:30:00,55.7,49.0,30.17,North,-999,-999.0,-999.0,78,0.00,,,0.02,AD6XL-WX-0.1,2013-03-16 03:30:00,
2013-03-15 20:35:00,55.3,49.1,30.18,North,-999,-999.0,-999.0,79,0.00,,,0.02,AD6XL-WX-0.1,2013-03-16 03:35:00,
2013-03-15 20:40:00,55.0,48.9,30.18,North,-999,-999.0,-999.0,79,0.00,,,0.02,AD6XL-WX-0.1,2013-03-16 03:40:00,
2013-03-15 20:45:00,54.7,48.7,30.18,North,-999,-999.0,-999.0,80,0.00,,,0.02,AD6XL-WX-0.1,2013-03-16 03:45:00,
2013-03-15 20:50:00,54.4,48.6,30.18,North,-999,-999.0,-999.0,80,0.00,,,0.02,AD6XL-WX-0.1,2013-03-16 03:50:00,
2013-03-15 20:56:00,54.2,48.7,30.18,North,-999,-999.0,-999.0,81,0.00,,,0.02,AD6XL-WX-0.1,2013-03-16 03:56:00,
2013-03-15 21:00:00,54.1,48.7,30.18,North,-999,-999.0,-999.0,82,0.00,,,0.02,AD6XL-WX-0.1,2013-03-16 04:00:00,
2013-03-15 21:03:00,53.9,48.6,30.18,North,-999,-999.0,-999.0,82,0.00,,,0.02,AD6XL-WX-0.1,2013-03-16 04:03:00,
2013-03-15 21:08:00,53.7,48.4,30.18,North,-999,-999.0,-999.0,82,0.00,,,0.02,AD6XL-WX-0.1,2013-03-16 04:08:00,
2013-03-15 21:13:00,53.4,48.2,30.18,North,-999,-999.0,-999.0,82,0.00,,,0.02,AD6XL-WX-0.1,2013-03-16 04:13:00,
2013-03-15 21:18:00,53.1,48.2,30.18,North,-999,-999.0,-999.0,83,0.00,,,0.02,AD6XL-WX-0.1,2013-03-16 04:18:00,
2013-03-15 21:23:00,52.9,48.1,30.18,North,-999,-999.0,-999.0,83,0.00,,,0.02,AD6XL-WX-0.1,2013-03-16 04:23:00,
2013-03-15 21:28:00,52.9,48.0,30.18,North,-999,-999.0,-999.0,83,0.00,,,0.02,AD6XL-WX-0.1,2013-03-16 04:28:00,
2013-03-15 21:34:00,52.8,47.8,30.18,North,-999,-999.0,-999.0,83,0.00,,,0.02,AD6XL-WX-0.1,2013-03-16 04:34:00,
2013-03-15 21:39:00,52.6,47.6,30.18,North,-999,-999.0,-999.0,83,0.00,,,0.02,AD6XL-WX-0.1,2013-03-16 04:39:00,
2013-03-15 21:44:00,52.4,47.4,30.18,North,-999,-999.0,-999.0,83,0.00,,,0.02,AD6XL-WX-0.1,2013-03-16 04:44:00,
2013-03-15 21:49:00,52.1,47.3,30.19,North,-999,-999.0,-999.0,83,0.00,,,0.02,AD6XL-WX-0.1,2013-03-16 04:49:00,
2013-03-15 21:54:00,51.8,47.1,30.19,North,-999,-999.0,-999.0,83,0.00,,,0.02,AD6XL-WX-0.1,2013-03-16 04:54:00,
2013-03-15 21:59:00,51.6,47.0,30.19,North,-999,-999.0,-999.0,84,0.00,,,0.02,AD6XL-WX-0.1,2013-03-16 04:59:00,
2013-03-15 22:04:00,51.4,46.9,30.19,North,-999,-999.0,-999.0,84,0.00,,,0.02,AD6XL-WX-0.1,2013-03-16 05:04:00,
2013-03-15 22:09:00,51.2,46.7,30.19,North,-999,-999.0,-999.0,84,0.00,,,0.02,AD6XL-WX-0.1,2013-03-16 05:09:00,
2013-03-15 22:14:00,51.0,46.7,30.19,North,-999,-999.0,-999.0,85,0.00,,,0.02,AD6XL-WX-0.1,2013-03-16 05:14:00,
2013-03-15 22:19:00,50.8,46.6,30.19,North,-999,-999.0,-999.0,85,0.00,,,0.02,AD6XL-WX-0.1,2013-03-16 05:19:00,
2013-03-15 22:25:00,50.7,46.6,30.19,North,-999,-999.0,-999.0,85,0.00,,,0.02,AD6XL-WX-0.1,2013-03-16 05:25:00,
2013-03-15 22:30:00,50.6,46.5,30.19,North,-999,-999.0,-999.0,85,0.00,,,0.02,AD6XL-WX-0.1,2013-03-16 05:30:00,
2013-03-15 22:35:00,50.3,46.5,30.19,North,-999,-999.0,-999.0,86,0.00,,,0.02,AD6XL-WX-0.1,2013-03-16 05:35:00,
2013-03-15 22:40:00,50.1,46.5,30.19,North,-999,-999.0,-999.0,87,0.00,,,0.02,AD6XL-WX-0.1,2013-03-16 05:40:00,
2013-03-15 22:45:00,49.8,46.3,30.19,North,-999,-999.0,-999.0,87,0.00,,,0.02,AD6XL-WX-0.1,2013-03-16 05:45:00,
2013-03-15 22:50:00,49.5,46.1,30.19,North,-999,-999.0,-999.0,87,0.00,,,0.02,AD6XL-WX-0.1,2013-03-16 05:50:00,
2013-03-15 22:55:00,49.2,45.9,30.19,North,-999,-999.0,-999.0,88,0.00,,,0.02,AD6XL-WX-0.1,2013-03-16 05:55:00,
2013-03-15 23:00:00,48.9,45.6,30.19,North,-999,-999.0,-999.0,88,0.00,,,0.02,AD6XL-WX-0.1,2013-03-16 06:00:00,
2013-03-15 23:05:00,48.7,45.6,30.19,North,-999,-999.0,-999.0,89,0.00,,,0.02,AD6XL-WX-0.1,2013-03-16 06:05:00,
2013-03-15 23:10:00,48.4,45.6,30.19,North,-999,-999.0,-999.0,89,0.00,,,0.02,AD6XL-WX-0.1,2013-03-16 06:10:00,
2013-03-15 23:15:00,48.3,45.6,30.19,North,-999,-999.0,-999.0,90,0.00,,,0.02,AD6XL-WX-0.1,2013-03-16 06:15:00,
2013-03-15 23:21:00,48.1,45.6,30.19,North,-999,-999.0,-999.0,91,0.00,,,0.02,AD6XL-WX-0.1,2013-03-16 06:21:00,
2013-03-15 23:26:00,48.0,45.6,30.19,North,-999,-999.0,-999.0,91,0.00,,,0.02,AD6XL-WX-0.1,2013-03-16 06:26:00,
2013-03-15 23:31:00,47.9,45.6,30.19,North,-999,-999.0,-999.0,91,0.00,,,0.02,AD6XL-WX-0.1,2013-03-16 06:31:00,
2013-03-15 23:36:00,47.8,45.8,30.19,North,-999,-999.0,-999.0,92,0.00,,,0.02,AD6XL-WX-0.1,2013-03-16 06:36:00,
2013-03-15 23:41:00,47.8,45.8,30.19,North,-999,-999.0,-999.0,92,0.00,,,0.02,AD6XL-WX-0.1,2013-03-16 06:41:00,
2013-03-15 23:46:00,47.8,45.7,30.19,North,-999,-999.0,-999.0,92,0.00,,,0.02,AD6XL-WX-0.1,2013-03-16 06:46:00,
2013-03-15 23:52:00,47.9,45.9,30.19,North,-999,-999.0,-999.0,92,0.00,,,0.02,AD6XL-WX-0.1,2013-03-16 06:52:00,
2013-03-15 23:57:00,47.9,46.1,30.19,North,-999,-999.0,-999.0,93,0.00,,,0.02,AD6XL-WX-0.1,2013-03-16 06:57:00,